Time;durP1;ratioP1;P1;durP2;ratioP2;P2;SDS_P1;SDS_P2;PMS_P1;PMS_P2;Temp;Humidity;BMP_temperature;BMP_pressure;BME280_temperature;BME280_humidity;BME280_pressure;Samples;Min_cycle;Max_cycle;Signal;HPM_P1;HPM_P2
2022/08/21 00:01:35;;;;;;;4.27;2.17;;;17.20;88.70;;;;;;5111834;28;20464;-59
2022/08/21 00:04:06;;;;;;;4.87;2.23;;;17.10;89.00;;;;;;5099678;28;20929;-59
2022/08/21 00:06:34;;;;;;;7.30;4.33;;;17.10;89.50;;;;;;5110963;28;20458;-59
2022/08/21 00:09:04;;;;;;;7.87;4.57;;;17.10;90.00;;;;;;5111836;28;20480;-60
2022/08/21 00:11:31;;;;;;;9.40;5.57;;;17.10;90.20;;;;;;5112656;28;20983;-59
2022/08/21 00:13:58;;;;;;;9.10;4.57;;;17.00;90.40;;;;;;5111092;28;20553;-59
2022/08/21 00:16:25;;;;;;;5.00;2.53;;;17.00;90.60;;;;;;5112842;28;20453;-59
2022/08/21 00:18:52;;;;;;;6.60;3.60;;;17.00;90.90;;;;;;5113336;28;20467;-58
2022/08/21 00:21:20;;;;;;;4.97;2.50;;;17.00;91.30;;;;;;5112757;28;21029;-59
2022/08/21 00:23:47;;;;;;;4.90;2.67;;;16.90;91.60;;;;;;5110693;28;20549;-59
2022/08/21 00:26:15;;;;;;;5.40;2.87;;;16.90;91.80;;;;;;5115289;28;20489;-59
2022/08/21 00:28:45;;;;;;;3.40;2.20;;;16.90;92.10;;;;;;5116633;28;20590;-59
2022/08/21 00:31:12;;;;;;;4.77;2.43;;;16.90;92.40;;;;;;5116396;28;20985;-59
2022/08/21 00:33:40;;;;;;;5.00;3.00;;;16.90;92.90;;;;;;5115157;28;20461;-59
2022/08/21 00:36:07;;;;;;;3.90;2.47;;;16.80;93.30;;;;;;5115694;28;20580;-59
2022/08/21 00:38:35;;;;;;;7.73;3.00;;;16.80;93.70;;;;;;5116722;28;20840;-58
2022/08/21 00:41:04;;;;;;;3.37;2.63;;;16.70;94.00;;;;;;5115980;28;20485;-59
2022/08/21 00:43:35;;;;;;;2.30;2.10;;;16.70;94.40;;;;;;5116005;28;20481;-59
2022/08/21 00:46:04;;;;;;;4.13;2.40;;;16.70;94.70;;;;;;5110217;28;20452;-59
2022/08/21 00:48:32;;;;;;;4.60;2.80;;;16.70;95.00;;;;;;5115898;28;20477;-59
2022/08/21 00:51:05;;;;;;;5.20;2.40;;;16.60;95.40;;;;;;5116317;28;20552;-59
2022/08/21 00:53:33;;;;;;;3.70;2.50;;;16.60;95.80;;;;;;5113538;28;20455;-60
2022/08/21 00:56:03;;;;;;;5.27;2.83;;;16.50;96.20;;;;;;5115906;28;20481;-59
2022/08/21 00:58:31;;;;;;;3.67;2.40;;;16.50;96.60;;;;;;5114846;28;20485;-59
2022/08/21 01:01:02;;;;;;;5.43;2.53;;;16.50;97.00;;;;;;5115950;28;20549;-59
2022/08/21 01:03:29;;;;;;;3.47;2.60;;;16.40;97.30;;;;;;5115657;28;20537;-60
2022/08/21 01:05:56;;;;;;;5.10;3.27;;;16.40;97.70;;;;;;5115067;28;20895;-59
2022/08/21 01:08:24;;;;;;;4.47;2.60;;;16.40;98.10;;;;;;5095985;28;20548;-59
2022/08/21 01:10:54;;;;;;;4.03;2.70;;;16.40;98.40;;;;;;5115218;28;20455;-59
2022/08/21 01:13:24;;;;;;;2.77;2.43;;;16.40;98.70;;;;;;5116509;28;20811;-59
2022/08/21 01:15:53;;;;;;;5.10;2.67;;;16.30;98.90;;;;;;5115098;28;20473;-59
2022/08/21 01:18:22;;;;;;;5.30;3.60;;;16.30;99.20;;;;;;5116331;28;20549;-59
2022/08/21 01:21:08;;;;;;;7.90;2.80;;;16.30;99.30;;;;;;5115941;28;20888;-59
2022/08/21 01:23:37;;;;;;;4.67;2.50;;;16.30;99.50;;;;;;5114984;28;20600;-60
2022/08/21 01:26:05;;;;;;;4.90;2.20;;;16.30;99.70;;;;;;5112369;28;20960;-59
2022/08/21 01:28:37;;;;;;;5.67;3.43;;;16.20;99.80;;;;;;5116334;28;20552;-59
2022/08/21 01:31:08;;;;;;;4.93;2.50;;;16.20;99.90;;;;;;5115621;28;20544;-59
2022/08/21 01:33:35;;;;;;;3.37;3.00;;;16.10;99.90;;;;;;5114388;28;20472;-59
2022/08/21 01:36:04;;;;;;;3.63;2.83;;;16.10;99.90;;;;;;5115023;28;20523;-59
2022/08/21 01:38:32;;;;;;;6.73;2.70;;;16.10;99.90;;;;;;5113598;28;20564;-58
2022/08/21 01:40:59;;;;;;;6.73;3.00;;;16.10;99.90;;;;;;5115511;28;20453;-59
2022/08/21 01:43:26;;;;;;;5.73;2.67;;;16.10;99.90;;;;;;5116002;28;20451;-59
2022/08/21 01:45:53;;;;;;;3.17;2.77;;;16.10;99.90;;;;;;5113033;28;20488;-59
2022/08/21 01:48:20;;;;;;;7.17;3.00;;;16.00;99.90;;;;;;5115069;28;20483;-59
2022/08/21 01:50:48;;;;;;;5.90;2.77;;;16.10;99.90;;;;;;5114247;28;21007;-59
2022/08/21 01:53:16;;;;;;;4.00;2.73;;;16.00;99.90;;;;;;5114550;28;20465;-59
2022/08/21 01:55:44;;;;;;;3.60;2.70;;;16.00;99.90;;;;;;5115402;28;20477;-59
2022/08/21 01:58:11;;;;;;;7.33;3.10;;;16.00;99.90;;;;;;5114715;28;20583;-59
2022/08/21 02:00:38;;;;;;;5.23;3.03;;;16.00;99.90;;;;;;5114611;28;20485;-59
2022/08/21 02:03:05;;;;;;;4.30;3.23;;;16.00;99.90;;;;;;5114750;28;20561;-59
2022/08/21 02:05:33;;;;;;;5.50;3.80;;;16.00;99.90;;;;;;5114243;28;20489;-59
2022/08/21 02:08:00;;;;;;;5.00;3.57;;;16.00;99.90;;;;;;5114452;28;20988;-59
2022/08/21 02:10:31;;;;;;;6.83;3.23;;;15.90;99.90;;;;;;5114238;28;20568;-58
2022/08/21 02:13:00;;;;;;;5.50;3.73;;;15.90;99.90;;;;;;5098955;28;20461;-59
2022/08/21 02:15:29;;;;;;;4.53;3.20;;;15.90;99.90;;;;;;5113782;28;20484;-59
2022/08/21 02:17:58;;;;;;;8.70;3.60;;;15.90;99.90;;;;;;5112700;28;20575;-59
2022/08/21 02:20:27;;;;;;;5.00;2.90;;;15.90;99.90;;;;;;5116075;28;20789;-60
2022/08/21 02:22:55;;;;;;;4.93;3.13;;;15.90;99.90;;;;;;5098877;28;20461;-59
2022/08/21 02:25:24;;;;;;;5.80;3.23;;;15.80;99.90;;;;;;5114238;28;20536;-59
2022/08/21 02:27:53;;;;;;;8.53;4.20;;;15.80;99.90;;;;;;5113539;28;20852;-59
2022/08/21 02:30:23;;;;;;;5.70;3.23;;;15.80;99.90;;;;;;5114476;28;20536;-58
2022/08/21 02:32:50;;;;;;;6.37;3.40;;;15.80;99.90;;;;;;5114488;28;20453;-57
2022/08/21 02:35:18;;;;;;;4.73;3.37;;;15.80;99.90;;;;;;5114130;28;20491;-59
2022/08/21 02:37:47;;;;;;;6.60;2.97;;;15.80;99.90;;;;;;5114581;28;20530;-59
2022/08/21 02:40:16;;;;;;;5.60;3.57;;;15.80;99.90;;;;;;5113136;28;20548;-59
2022/08/21 02:42:43;;;;;;;5.33;2.50;;;15.80;99.90;;;;;;5113441;28;20485;-60
2022/08/21 02:45:13;;;;;;;6.30;3.60;;;15.90;99.90;;;;;;5111706;28;20548;-59
2022/08/21 02:47:41;;;;;;;3.40;2.70;;;15.80;99.90;;;;;;5113303;28;20457;-59
2022/08/21 02:50:08;;;;;;;5.40;2.83;;;15.80;99.90;;;;;;5113664;28;20473;-59
2022/08/21 02:52:36;;;;;;;4.50;3.43;;;15.80;99.90;;;;;;5113970;28;20500;-59
2022/08/21 02:55:04;;;;;;;4.83;3.13;;;15.80;99.90;;;;;;5113352;28;20548;-59
2022/08/21 02:57:32;;;;;;;4.53;3.80;;;15.80;99.90;;;;;;5112125;28;20464;-59
2022/08/21 03:00:00;;;;;;;4.30;3.17;;;15.80;99.90;;;;;;5113446;28;20461;-59
2022/08/21 03:02:28;;;;;;;5.30;3.00;;;15.80;99.90;;;;;;5113176;28;20481;-59
2022/08/21 03:04:55;;;;;;;5.70;2.70;;;15.80;99.90;;;;;;5112709;28;20541;-59
2022/08/21 03:07:23;;;;;;;5.93;2.70;;;15.70;99.90;;;;;;5112955;28;20600;-59
2022/08/21 03:09:50;;;;;;;4.37;3.30;;;15.70;99.90;;;;;;5112384;28;20513;-59
2022/08/21 03:12:17;;;;;;;4.63;3.27;;;15.70;99.90;;;;;;5113334;28;20560;-59
2022/08/21 03:14:44;;;;;;;5.60;3.60;;;15.70;99.90;;;;;;5112152;28;20512;-59
2022/08/21 03:17:12;;;;;;;4.77;2.67;;;15.70;99.90;;;;;;5113464;28;20477;-58
2022/08/21 03:19:40;;;;;;;3.33;3.03;;;15.60;99.90;;;;;;5113758;28;20466;-58
2022/08/21 03:22:07;;;;;;;5.43;3.07;;;15.60;99.90;;;;;;5113146;28;20552;-58
2022/08/21 03:24:35;;;;;;;4.20;3.13;;;15.60;99.90;;;;;;5113073;28;20528;-59
2022/08/21 03:27:02;;;;;;;5.37;3.80;;;15.60;99.90;;;;;;5113001;28;20450;-59
2022/08/21 03:29:29;;;;;;;3.13;2.70;;;15.70;99.90;;;;;;5112542;28;20560;-59
2022/08/21 03:31:56;;;;;;;8.87;3.37;;;15.70;99.90;;;;;;5111891;28;20874;-59
2022/08/21 03:34:24;;;;;;;7.17;2.97;;;15.70;99.90;;;;;;5114040;28;20452;-59
2022/08/21 03:36:52;;;;;;;5.30;3.43;;;15.70;99.90;;;;;;5112048;28;20501;-58
2022/08/21 03:39:19;;;;;;;4.30;2.87;;;15.80;99.90;;;;;;5113675;28;20814;-58
2022/08/21 03:41:47;;;;;;;4.63;3.40;;;15.80;99.90;;;;;;5110664;28;20457;-60
2022/08/21 03:44:14;;;;;;;5.17;3.17;;;15.80;99.90;;;;;;5113281;28;21069;-59
2022/08/21 03:46:41;;;;;;;5.30;4.00;;;15.90;99.90;;;;;;5111272;28;20481;-60
2022/08/21 03:49:08;;;;;;;5.37;3.60;;;16.00;99.90;;;;;;5112373;28;20556;-60
2022/08/21 03:51:36;;;;;;;5.47;3.10;;;16.10;99.90;;;;;;5112053;28;20907;-60
2022/08/21 03:54:04;;;;;;;6.37;3.50;;;16.10;99.90;;;;;;5113922;28;20996;-59
2022/08/21 03:56:32;;;;;;;6.20;2.83;;;16.20;99.90;;;;;;5111907;28;20914;-59
2022/08/21 03:58:59;;;;;;;4.50;3.10;;;16.20;99.90;;;;;;5133580;22;20493;-59
2022/08/21 04:01:27;;;;;;;5.20;3.80;;;16.30;99.90;;;;;;5112271;28;20457;-59
2022/08/21 04:03:54;;;;;;;4.80;3.43;;;16.30;99.90;;;;;;5112835;28;20481;-58
2022/08/21 04:06:21;;;;;;;6.43;4.10;;;16.40;99.90;;;;;;5113104;28;20491;-59
2022/08/21 04:10:11;;;;;;;6.37;3.70;;;16.50;99.90;;;;;;5092284;27;20793;-59
2022/08/21 04:12:38;;;;;;;4.90;3.37;;;16.50;99.90;;;;;;5089520;28;20522;-60
2022/08/21 04:15:06;;;;;;;5.63;3.30;;;16.60;99.90;;;;;;5087499;28;20486;-59
2022/08/21 04:17:33;;;;;;;4.60;3.20;;;16.60;99.90;;;;;;5095999;28;20502;-57
2022/08/21 04:20:00;;;;;;;4.90;3.30;;;16.60;99.90;;;;;;5109153;28;20478;-59
2022/08/21 04:22:27;;;;;;;7.17;3.07;;;16.70;99.90;;;;;;5101106;28;20494;-58
2022/08/21 04:24:54;;;;;;;4.60;3.03;;;16.70;99.90;;;;;;5088778;28;20558;-59
2022/08/21 04:27:23;;;;;;;7.57;3.93;;;16.70;99.90;;;;;;5105670;28;20482;-58
2022/08/21 04:29:50;;;;;;;4.50;3.23;;;16.70;99.90;;;;;;5107731;28;20486;-58
2022/08/21 04:32:23;;;;;;;4.83;3.30;;;16.80;99.90;;;;;;5094851;28;20470;-58
2022/08/21 04:34:51;;;;;;;7.57;3.40;;;16.80;99.90;;;;;;5099692;28;20458;-60
2022/08/21 04:37:18;;;;;;;7.70;3.80;;;16.80;99.90;;;;;;5089554;28;20464;-58
2022/08/21 04:39:46;;;;;;;7.43;3.10;;;16.80;99.90;;;;;;5100978;28;20497;-59
2022/08/21 04:42:14;;;;;;;4.23;3.70;;;16.80;99.90;;;;;;5081452;28;20459;-59
2022/08/21 04:44:42;;;;;;;4.37;3.00;;;16.90;99.90;;;;;;5083681;28;20459;-62
2022/08/21 04:47:09;;;;;;;3.50;2.90;;;16.90;99.90;;;;;;5069256;28;20494;-59
2022/08/21 04:49:36;;;;;;;7.90;2.83;;;17.00;99.90;;;;;;5068711;28;20853;-58
2022/08/21 04:52:04;;;;;;;4.00;3.00;;;17.00;99.90;;;;;;5068866;28;20834;-57
2022/08/21 04:54:32;;;;;;;5.43;3.10;;;17.00;99.90;;;;;;5069307;28;20940;-58
2022/08/21 04:57:04;;;;;;;5.23;3.03;;;17.00;99.80;;;;;;5070286;28;20467;-60
2022/08/21 04:59:36;;;;;;;4.80;3.10;;;17.10;99.70;;;;;;5069236;28;20805;-59
2022/08/21 05:02:07;;;;;;;4.53;3.00;;;17.10;99.50;;;;;;5086337;28;20533;-59
2022/08/21 05:04:39;;;;;;;5.00;3.17;;;17.10;99.30;;;;;;5072658;28;21014;-59
2022/08/21 05:07:08;;;;;;;7.17;3.30;;;17.10;99.30;;;;;;5087995;28;20537;-58
2022/08/21 05:09:37;;;;;;;5.07;3.10;;;17.10;99.30;;;;;;5099800;28;20528;-63
2022/08/21 05:12:05;;;;;;;5.60;3.07;;;17.20;99.30;;;;;;5079186;28;20454;-58
2022/08/21 05:14:32;;;;;;;2.83;2.53;;;17.20;99.10;;;;;;5084838;28;20464;-58
2022/08/21 05:17:00;;;;;;;4.20;3.20;;;17.30;99.00;;;;;;5088364;28;20458;-59
2022/08/21 05:19:29;;;;;;;4.40;2.97;;;17.30;98.90;;;;;;5086337;28;20485;-59
2022/08/21 05:21:57;;;;;;;4.43;2.70;;;17.40;98.80;;;;;;5061248;28;20471;-60
2022/08/21 05:24:24;;;;;;;8.30;2.77;;;17.40;98.70;;;;;;5068943;28;20524;-59
2022/08/21 05:26:52;;;;;;;6.20;2.93;;;17.40;98.60;;;;;;5072805;28;20465;-60
2022/08/21 05:29:19;;;;;;;4.57;2.70;;;17.50;98.60;;;;;;5058399;28;20538;-60
2022/08/21 05:31:47;;;;;;;3.50;2.30;;;17.50;98.40;;;;;;5067429;28;20459;-59
2022/08/21 05:34:15;;;;;;;5.50;2.63;;;17.60;98.30;;;;;;5075456;28;20445;-59
2022/08/21 05:36:44;;;;;;;6.60;3.10;;;17.70;98.20;;;;;;5060142;28;20956;-59
2022/08/21 05:39:11;;;;;;;4.80;2.83;;;17.70;98.10;;;;;;5060080;28;20482;-59
2022/08/21 05:41:38;;;;;;;5.60;2.90;;;17.80;98.00;;;;;;5060847;28;20464;-59
2022/08/21 05:44:05;;;;;;;6.07;2.57;;;17.90;97.70;;;;;;5069060;28;20969;-60
2022/08/21 05:46:33;;;;;;;4.03;2.47;;;18.00;97.40;;;;;;5072064;28;21590;-59
2022/08/21 05:49:00;;;;;;;4.40;2.57;;;18.10;97.10;;;;;;5074836;28;20483;-58
2022/08/21 05:51:27;;;;;;;3.30;2.33;;;18.10;96.90;;;;;;5063825;28;20570;-58
2022/08/21 05:53:56;;;;;;;4.83;2.50;;;18.20;96.70;;;;;;5059234;28;20550;-59
2022/08/21 05:56:23;;;;;;;4.73;2.60;;;18.20;96.40;;;;;;5074071;28;20546;-58
2022/08/21 05:58:50;;;;;;;4.87;2.80;;;18.30;96.30;;;;;;5065560;28;20515;-58
2022/08/21 06:01:17;;;;;;;3.13;2.33;;;18.30;96.10;;;;;;5063453;28;20558;-59
2022/08/21 06:03:45;;;;;;;4.33;2.23;;;18.40;95.90;;;;;;5074708;28;20987;-58
2022/08/21 06:06:12;;;;;;;3.07;2.03;;;18.30;95.70;;;;;;5069131;28;20908;-59
2022/08/21 06:08:39;;;;;;;8.00;3.03;;;18.30;95.80;;;;;;5067107;28;20582;-59
2022/08/21 06:11:10;;;;;;;3.97;2.53;;;18.20;95.90;;;;;;5068918;28;20814;-59
2022/08/21 06:13:38;;;;;;;5.80;2.90;;;18.20;96.00;;;;;;5061742;28;20495;-59
2022/08/21 06:16:09;;;;;;;3.80;2.50;;;18.20;96.10;;;;;;5063805;28;20484;-59
2022/08/21 06:18:37;;;;;;;4.90;2.63;;;18.20;96.00;;;;;;5078955;28;20849;-59
2022/08/21 06:21:04;;;;;;;2.30;2.10;;;18.20;96.10;;;;;;5075697;28;20547;-59
2022/08/21 06:23:32;;;;;;;3.33;2.40;;;18.10;96.20;;;;;;5065405;28;21037;-59
2022/08/21 06:26:00;;;;;;;5.03;2.60;;;18.10;96.20;;;;;;5058417;28;20547;-60
2022/08/21 06:28:30;;;;;;;4.10;2.40;;;18.10;96.20;;;;;;5074274;28;20539;-58
2022/08/21 06:30:57;;;;;;;3.90;2.20;;;18.10;96.20;;;;;;5078783;28;20459;-60
2022/08/21 06:33:24;;;;;;;5.50;2.40;;;18.20;96.10;;;;;;5069887;28;20900;-60
2022/08/21 06:35:52;;;;;;;3.63;3.10;;;18.30;96.00;;;;;;5065042;28;20455;-59
2022/08/21 06:38:19;;;;;;;7.40;2.87;;;18.40;95.90;;;;;;5089209;28;20479;-59
2022/08/21 06:40:46;;;;;;;5.33;3.37;;;18.50;95.70;;;;;;5076730;28;20487;-58
2022/08/21 06:43:15;;;;;;;3.23;2.50;;;18.60;95.70;;;;;;5074942;28;20652;-58
2022/08/21 06:45:45;;;;;;;3.77;2.63;;;18.80;95.10;;;;;;5068488;28;20812;-59
2022/08/21 06:48:12;;;;;;;3.60;2.53;;;18.80;94.70;;;;;;5055484;28;20884;-59
2022/08/21 06:50:39;;;;;;;7.13;3.27;;;18.90;94.50;;;;;;5059151;28;20486;-59
2022/08/21 06:53:09;;;;;;;3.90;2.23;;;18.90;94.40;;;;;;5068751;28;20938;-57
2022/08/21 06:55:37;;;;;;;4.77;2.50;;;19.00;94.20;;;;;;5054968;28;20468;-59
2022/08/21 06:58:05;;;;;;;7.10;4.80;;;19.10;94.10;;;;;;5060297;28;20959;-62
2022/08/21 07:00:33;;;;;;;4.23;3.03;;;19.30;93.90;;;;;;5053342;28;20889;-59
2022/08/21 07:03:02;;;;;;;3.70;2.50;;;19.60;93.40;;;;;;5057299;28;20479;-57
2022/08/21 07:05:30;;;;;;;4.57;2.53;;;19.80;92.70;;;;;;5054315;28;20470;-58
2022/08/21 07:07:58;;;;;;;4.37;2.30;;;20.00;92.20;;;;;;5054545;28;20444;-58
2022/08/21 07:10:26;;;;;;;3.53;2.57;;;20.00;91.80;;;;;;5055137;28;20579;-58
2022/08/21 07:12:54;;;;;;;5.10;2.60;;;20.10;91.40;;;;;;5053796;28;20444;-58
2022/08/21 07:15:22;;;;;;;6.70;2.73;;;20.20;91.30;;;;;;5053947;28;20535;-58
2022/08/21 07:17:49;;;;;;;7.63;4.80;;;20.20;91.00;;;;;;5053982;28;20448;-58
2022/08/21 07:20:18;;;;;;;5.80;2.80;;;20.30;91.10;;;;;;5053701;28;20472;-58
2022/08/21 07:22:46;;;;;;;3.93;2.67;;;20.50;90.40;;;;;;5054645;28;20850;-59
2022/08/21 07:25:13;;;;;;;5.77;4.30;;;20.70;90.00;;;;;;5055574;28;20440;-58
2022/08/21 07:27:40;;;;;;;6.47;2.70;;;20.90;89.00;;;;;;5053987;28;20449;-58
2022/08/21 07:30:09;;;;;;;6.23;2.60;;;21.00;87.70;;;;;;5056180;28;20507;-58
2022/08/21 07:32:36;;;;;;;8.63;2.87;;;21.10;86.50;;;;;;5058316;28;20450;-58
2022/08/21 07:35:04;;;;;;;3.20;2.07;;;21.20;85.20;;;;;;5058793;28;20444;-58
2022/08/21 07:37:34;;;;;;;3.47;2.13;;;21.20;83.90;;;;;;5059373;28;20536;-59
2022/08/21 07:40:01;;;;;;;6.07;2.67;;;21.20;82.00;;;;;;5065741;28;20461;-58
2022/08/21 07:42:29;;;;;;;2.73;1.70;;;21.30;81.60;;;;;;5076763;28;20548;-59
2022/08/21 07:44:57;;;;;;;7.63;1.80;;;21.30;79.30;;;;;;5079138;28;20437;-59
2022/08/21 07:47:25;;;;;;;7.20;2.10;;;21.50;76.20;;;;;;5077562;28;20501;-59
2022/08/21 07:49:52;;;;;;;6.90;2.43;;;21.60;73.50;;;;;;5078233;28;20484;-59
2022/08/21 07:52:20;;;;;;;4.60;2.40;;;21.60;70.90;;;;;;5078238;28;20444;-59
2022/08/21 07:54:49;;;;;;;3.70;1.87;;;21.70;69.50;;;;;;5062534;28;20484;-58
2022/08/21 07:57:16;;;;;;;5.30;2.43;;;21.80;67.80;;;;;;5057553;28;20936;-58
2022/08/21 07:59:44;;;;;;;3.13;2.40;;;21.90;66.70;;;;;;5058713;28;20464;-57
2022/08/21 08:02:11;;;;;;;3.50;2.03;;;21.90;66.10;;;;;;5060408;28;20454;-60
2022/08/21 08:04:38;;;;;;;3.57;2.20;;;21.90;65.60;;;;;;5076456;28;20465;-58
2022/08/21 08:07:06;;;;;;;3.43;2.30;;;21.90;65.40;;;;;;5066262;28;20922;-59
2022/08/21 08:09:33;;;;;;;5.30;2.30;;;21.90;65.40;;;;;;5065614;28;20499;-60
2022/08/21 08:12:03;;;;;;;5.73;2.30;;;21.90;65.30;;;;;;5072806;28;20461;-59
2022/08/21 08:14:31;;;;;;;6.50;3.10;;;22.00;65.10;;;;;;5053165;28;20516;-60
2022/08/21 08:16:58;;;;;;;3.77;2.10;;;22.10;64.30;;;;;;5061544;28;20466;-60
2022/08/21 08:19:25;;;;;;;6.20;2.20;;;22.20;63.60;;;;;;5059844;28;20575;-58
2022/08/21 08:21:52;;;;;;;5.13;1.70;;;22.30;62.80;;;;;;5055604;28;20499;-58
2022/08/21 08:24:20;;;;;;;2.97;1.90;;;22.40;61.80;;;;;;5071740;28;20453;-59
2022/08/21 08:26:47;;;;;;;6.17;2.57;;;22.60;60.80;;;;;;5072481;28;20447;-59
2022/08/21 08:29:16;;;;;;;3.67;2.33;;;22.70;59.60;;;;;;5062850;28;20523;-58
2022/08/21 08:31:43;;;;;;;3.33;1.90;;;22.70;58.80;;;;;;5060181;28;20462;-58
2022/08/21 08:34:10;;;;;;;2.20;1.60;;;22.80;58.50;;;;;;5055755;28;20613;-59
2022/08/21 08:36:38;;;;;;;1.90;1.50;;;22.90;58.30;;;;;;5055963;28;20861;-59
2022/08/21 08:39:06;;;;;;;6.33;2.17;;;23.00;57.30;;;;;;5062223;28;20486;-59
2022/08/21 08:41:35;;;;;;;6.43;2.10;;;23.00;56.70;;;;;;5066222;28;20508;-59
2022/08/21 08:44:05;;;;;;;4.53;1.80;;;23.00;56.50;;;;;;5071710;28;20969;-59
2022/08/21 08:46:39;;;;;;;3.40;1.40;;;23.10;56.40;;;;;;5072657;28;20435;-60
2022/08/21 08:49:14;;;;;;;4.70;1.87;;;23.20;56.20;;;;;;5072488;28;20531;-60
2022/08/21 08:51:47;;;;;;;4.47;2.00;;;23.30;55.60;;;;;;5072626;28;20427;-59
2022/08/21 08:54:19;;;;;;;3.80;2.20;;;23.30;55.00;;;;;;5067538;28;20537;-60
2022/08/21 08:56:47;;;;;;;5.90;1.90;;;23.30;54.60;;;;;;5065942;28;21088;-60
2022/08/21 08:59:19;;;;;;;4.47;1.77;;;23.40;54.50;;;;;;5076032;28;20474;-58
2022/08/21 09:01:48;;;;;;;2.53;1.53;;;23.40;54.00;;;;;;5067899;28;20477;-59
2022/08/21 09:04:24;;;;;;;4.30;1.80;;;23.40;53.60;;;;;;5070922;28;20877;-60
2022/08/21 09:07:02;;;;;;;5.73;2.37;;;23.40;53.60;;;;;;5061177;28;20549;-60
2022/08/21 09:09:47;;;;;;;4.40;2.30;;;23.50;53.40;;;;;;5055350;28;20575;-59
2022/08/21 09:12:26;;;;;;;3.53;2.00;;;23.60;53.20;;;;;;5066498;28;20569;-59
2022/08/21 09:15:03;;;;;;;3.67;2.20;;;23.70;52.80;;;;;;5059943;28;20537;-59
2022/08/21 09:17:43;;;;;;;6.47;2.03;;;23.80;52.70;;;;;;5074753;28;20549;-59
2022/08/21 09:20:19;;;;;;;4.43;2.30;;;23.90;52.40;;;;;;5068085;28;20565;-59
2022/08/21 09:22:59;;;;;;;4.00;2.43;;;24.00;52.30;;;;;;5055373;28;20606;-60
2022/08/21 09:25:28;;;;;;;2.70;2.10;;;24.10;52.10;;;;;;5060518;28;20469;-59
2022/08/21 09:27:56;;;;;;;7.00;2.63;;;24.20;52.10;;;;;;5073286;28;20542;-59
2022/08/21 09:30:28;;;;;;;5.23;2.13;;;24.20;51.60;;;;;;5069470;28;20489;-60
2022/08/21 09:32:57;;;;;;;5.07;2.00;;;24.20;51.30;;;;;;5055915;28;20506;-59
2022/08/21 09:35:26;;;;;;;3.90;1.93;;;24.20;51.30;;;;;;5054311;28;20499;-60
2022/08/21 09:37:56;;;;;;;3.67;2.40;;;24.20;51.20;;;;;;5067283;28;20463;-59
2022/08/21 09:40:34;;;;;;;5.13;1.93;;;24.20;51.00;;;;;;5067498;28;20477;-59
2022/08/21 09:43:03;;;;;;;6.00;2.07;;;24.20;51.10;;;;;;5056403;28;20908;-59
2022/08/21 09:45:32;;;;;;;4.93;2.30;;;24.20;51.00;;;;;;5063373;28;20557;-58
2022/08/21 09:48:11;;;;;;;2.93;2.50;;;24.30;51.00;;;;;;5061617;28;20556;-60
2022/08/21 09:50:39;;;;;;;3.87;2.10;;;24.20;51.00;;;;;;5054962;28;20483;-60
2022/08/21 09:53:16;;;;;;;5.43;2.10;;;24.40;51.80;;;;;;5055165;28;20521;-59
2022/08/21 09:58:38;;;;;;;3.90;1.80;;;24.70;50.60;;;;;;5071871;28;20549;-60
2022/08/21 10:01:07;;;;;;;2.97;1.90;;;24.70;50.40;;;;;;5080401;23;20589;-61
2022/08/21 10:03:36;;;;;;;5.37;2.13;;;24.70;50.10;;;;;;5053502;28;20556;-60
2022/08/21 10:06:08;;;;;;;6.70;3.00;;;24.70;50.20;;;;;;5053460;28;20496;-61
2022/08/21 10:08:37;;;;;;;3.13;2.60;;;24.80;50.30;;;;;;5053751;28;21088;-62
2022/08/21 10:11:07;;;;;;;6.33;2.20;;;24.90;50.10;;;;;;5053620;28;20521;-60
2022/08/21 10:13:47;;;;;;;5.07;2.10;;;25.10;49.90;;;;;;5055083;28;20537;-60
2022/08/21 10:16:24;;;;;;;7.30;2.30;;;25.00;49.60;;;;;;5053547;28;20463;-60
2022/08/21 10:19:03;;;;;;;5.30;2.00;;;25.00;49.80;;;;;;5052972;28;20528;-61
2022/08/21 10:21:38;;;;;;;5.10;2.43;;;25.10;49.60;;;;;;5026225;28;20473;-59
2022/08/21 10:24:14;;;;;;;5.37;2.20;;;25.20;49.40;;;;;;5053366;28;20510;-59
2022/08/21 10:26:53;;;;;;;4.27;2.00;;;25.20;49.00;;;;;;5053365;28;20556;-61
2022/08/21 10:29:40;;;;;;;3.60;1.93;;;25.30;48.40;;;;;;5038864;28;20482;-60
2022/08/21 10:32:17;;;;;;;4.73;1.90;;;25.20;48.20;;;;;;5033625;28;20832;-59
2022/08/21 10:34:54;;;;;;;3.80;2.00;;;25.10;47.90;;;;;;5033500;28;20465;-59
2022/08/21 10:37:32;;;;;;;3.90;2.00;;;25.00;47.70;;;;;;5033438;28;20905;-62
2022/08/21 10:40:14;;;;;;;4.80;2.13;;;24.90;47.70;;;;;;5023829;28;20481;-59
2022/08/21 10:42:50;;;;;;;4.40;1.93;;;24.90;47.80;;;;;;5053513;28;20456;-60
2022/08/21 10:45:26;;;;;;;5.20;2.40;;;25.10;47.60;;;;;;5044144;28;20545;-60
2022/08/21 10:47:56;;;;;;;4.90;2.30;;;25.40;47.30;;;;;;5044683;28;20462;-60
2022/08/21 10:50:32;;;;;;;3.47;1.90;;;25.60;46.70;;;;;;5052604;28;20497;-60
2022/08/21 10:53:15;;;;;;;3.73;1.90;;;25.50;46.10;;;;;;5053872;28;20430;-59
2022/08/21 10:55:48;;;;;;;3.03;1.67;;;25.40;45.70;;;;;;5051640;28;20489;-61
2022/08/21 10:58:24;;;;;;;3.63;1.80;;;25.40;45.60;;;;;;5044916;28;20492;-60
2022/08/21 11:00:57;;;;;;;5.10;1.90;;;25.60;45.20;;;;;;5039305;28;20500;-60
2022/08/21 11:03:33;;;;;;;5.33;1.70;;;25.60;44.60;;;;;;5053586;28;20462;-60
2022/08/21 11:06:07;;;;;;;2.60;1.87;;;25.50;44.60;;;;;;5052939;28;20812;-59
2022/08/21 11:08:39;;;;;;;3.80;1.80;;;25.50;44.30;;;;;;5044401;28;20473;-61
2022/08/21 11:11:11;;;;;;;3.53;1.43;;;25.60;43.90;;;;;;5042452;28;20836;-59
2022/08/21 11:13:44;;;;;;;4.47;2.10;;;25.70;43.70;;;;;;5029251;28;20555;-60
2022/08/21 11:16:22;;;;;;;3.10;2.20;;;25.80;43.30;;;;;;5052523;28;20547;-60
2022/08/21 11:18:57;;;;;;;4.60;1.67;;;25.90;43.10;;;;;;5044281;28;20551;-60
2022/08/21 11:21:35;;;;;;;4.30;2.07;;;25.90;43.10;;;;;;5052087;28;20506;-60
2022/08/21 11:24:16;;;;;;;5.23;1.77;;;25.80;43.20;;;;;;5054494;28;20449;-59
2022/08/21 11:26:47;;;;;;;3.33;1.50;;;25.80;43.00;;;;;;5052973;28;20461;-59
2022/08/21 11:29:20;;;;;;;5.37;1.80;;;25.90;42.70;;;;;;5034174;28;20522;-59
2022/08/21 11:32:03;;;;;;;3.10;1.80;;;26.00;42.50;;;;;;5033253;28;20849;-59
2022/08/21 11:34:46;;;;;;;2.90;1.73;;;26.10;42.40;;;;;;5037032;28;20545;-60
2022/08/21 11:37:27;;;;;;;4.10;2.00;;;26.20;42.40;;;;;;5053763;28;20524;-60
2022/08/21 11:40:13;;;;;;;5.23;1.53;;;26.20;42.40;;;;;;5053133;28;20524;-59
2022/08/21 11:42:50;;;;;;;4.63;2.47;;;26.00;42.50;;;;;;5050988;28;20488;-59
2022/08/21 11:45:25;;;;;;;2.60;1.47;;;26.10;42.30;;;;;;5049235;28;20461;-60
2022/08/21 11:48:04;;;;;;;2.50;1.50;;;26.40;42.10;;;;;;5033391;28;20478;-60
2022/08/21 11:50:32;;;;;;;6.40;2.90;;;27.00;41.50;;;;;;5040963;28;20570;-61
2022/08/21 11:53:08;;;;;;;6.70;1.90;;;27.70;40.50;;;;;;5041982;28;20486;-60
2022/08/21 11:55:42;;;;;;;1.90;1.43;;;28.30;39.30;;;;;;5031779;28;20554;-59
2022/08/21 11:58:15;;;;;;;3.80;1.40;;;28.70;38.30;;;;;;5032977;28;20534;-60
2022/08/21 12:00:46;;;;;;;2.33;1.50;;;28.60;37.90;;;;;;5032782;28;20563;-58
2022/08/21 12:03:17;;;;;;;2.73;1.60;;;28.50;38.20;;;;;;5033302;28;20876;-59
2022/08/21 12:05:53;;;;;;;3.23;1.67;;;28.00;38.40;;;;;;5033026;28;20514;-58
2022/08/21 12:08:31;;;;;;;2.63;2.30;;;27.30;39.10;;;;;;5032552;28;20512;-58
2022/08/21 12:11:05;;;;;;;2.53;1.47;;;27.20;39.40;;;;;;5032490;28;20488;-58
2022/08/21 12:13:34;;;;;;;2.00;1.33;;;28.00;38.60;;;;;;5032561;28;20524;-60
2022/08/21 12:16:09;;;;;;;3.53;1.53;;;29.00;37.40;;;;;;5032402;28;20531;-58
2022/08/21 12:18:37;;;;;;;4.13;1.70;;;30.10;36.10;;;;;;5033103;28;20481;-59
2022/08/21 12:21:21;;;;;;;2.47;1.63;;;30.80;34.90;;;;;;5032993;28;20823;-59
2022/08/21 12:24:01;;;;;;;4.70;1.80;;;30.70;34.20;;;;;;5032578;28;20780;-58
2022/08/21 12:26:30;;;;;;;3.23;1.90;;;30.00;35.10;;;;;;5033080;28;20516;-57
2022/08/21 12:29:15;;;;;;;3.57;1.90;;;29.60;36.00;;;;;;5032953;28;20558;-58
2022/08/21 12:31:58;;;;;;;3.63;2.10;;;29.10;36.70;;;;;;5036552;28;20494;-60
2022/08/21 12:34:33;;;;;;;2.90;1.90;;;28.70;37.70;;;;;;5036822;28;20911;-59
2022/08/21 12:37:04;;;;;;;1.97;1.30;;;28.40;37.60;;;;;;5036818;28;20522;-57
2022/08/21 12:39:37;;;;;;;2.90;1.73;;;28.10;38.10;;;;;;5037470;28;20432;-57
2022/08/21 12:42:09;;;;;;;2.40;1.80;;;27.90;38.20;;;;;;5037654;28;20548;-57
2022/08/21 12:44:41;;;;;;;2.47;1.70;;;27.90;38.10;;;;;;5037358;28;20580;-57
2022/08/21 12:47:17;;;;;;;5.00;1.60;;;27.80;38.10;;;;;;5038036;28;20429;-57
2022/08/21 12:49:57;;;;;;;4.30;1.60;;;27.70;38.10;;;;;;5036883;28;20429;-59
2022/08/21 12:52:32;;;;;;;4.27;1.70;;;27.70;38.30;;;;;;5037050;28;20475;-58
2022/08/21 12:55:01;;;;;;;2.20;1.67;;;27.70;38.30;;;;;;5036657;28;20515;-57
2022/08/21 12:57:30;;;;;;;3.13;1.70;;;27.70;38.20;;;;;;5036294;28;20824;-59
2022/08/21 13:00:00;;;;;;;4.43;2.00;;;27.80;38.00;;;;;;5036283;28;21011;-58
2022/08/21 13:02:31;;;;;;;3.00;1.70;;;27.70;37.90;;;;;;5036434;28;20447;-59
2022/08/21 13:05:02;;;;;;;3.23;1.50;;;27.70;37.80;;;;;;5036464;28;20751;-58
2022/08/21 13:07:33;;;;;;;7.03;1.77;;;27.60;38.00;;;;;;5036158;28;20528;-58